Time;durP1;ratioP1;P1;durP2;ratioP2;P2;SDS_P1;SDS_P2;PMS_P1;PMS_P2;Temp;Humidity;BMP_temperature;BMP_pressure;BME280_temperature;BME280_humidity;BME280_pressure;Samples;Min_cycle;Max_cycle;Signal;HPM_P1;HPM_P2
2021/11/22 07:59:14;;;;;;;7.28;2.60;;;;;;;5.76;75.36;99260.91;2611573;46;20035;-68
2021/11/22 08:01:44;;;;;;;10.65;3.42;;;;;;;5.75;74.95;99264.50;2624776;54;20043;-68
2021/11/22 08:04:17;;;;;;;9.05;4.07;;;;;;;5.75;74.57;99261.03;2624748;54;20034;-67
2021/11/22 08:06:54;;;;;;;5.72;2.50;;;;;;;5.78;74.32;99266.81;2625259;54;20031;-67
2021/11/22 08:09:31;;;;;;;7.57;3.03;;;;;;;5.76;74.16;99271.41;2624266;54;20045;-67
2021/11/22 08:12:25;;;;;;;6.22;2.50;;;;;;;5.77;73.79;99275.66;2623984;54;20104;-67
2021/11/22 08:14:59;;;;;;;;;;;;;;;5.80;73.71;99275.38;2623682;47;20027;-67
2021/11/22 08:17:29;;;;;;;10.52;3.25;;;;;;;5.74;73.31;99275.97;2623754;46;19947;-67
2021/11/22 08:20:00;;;;;;;6.13;2.65;;;;;;;5.70;73.36;99288.56;2623771;54;20026;-67
2021/11/22 08:22:29;;;;;;;6.38;3.15;;;;;;;5.68;73.19;99289.69;2623969;54;20023;-67
2021/11/22 08:24:59;;;;;;;9.25;3.70;;;;;;;5.72;73.31;99296.28;2624580;54;20037;-68
2021/11/22 08:27:31;;;;;;;5.45;2.40;;;;;;;5.75;73.20;99298.59;2623966;54;20046;-68
2021/11/22 08:30:07;;;;;;;7.70;3.25;;;;;;;5.74;72.78;99304.81;2622701;54;20026;-68
2021/11/22 08:32:38;;;;;;;5.13;2.63;;;;;;;5.69;72.44;99300.03;2623305;54;20035;-68
2021/11/22 08:35:09;;;;;;;6.43;2.88;;;;;;;5.69;72.77;99307.06;2623218;54;20034;-66
2021/11/22 08:37:39;;;;;;;5.43;2.70;;;;;;;5.71;73.17;99315.59;2623743;39;20434;-69
2021/11/22 08:40:13;;;;;;;6.65;2.85;;;;;;;5.73;72.85;99324.16;2624920;54;20045;-68
2021/11/22 08:42:44;;;;;;;7.97;3.05;;;;;;;5.71;72.25;99329.56;2624330;54;20029;-68
2021/11/22 08:45:16;;;;;;;7.28;2.80;;;;;;;5.69;72.57;99328.06;2625219;54;20038;-68
2021/11/22 08:47:47;;;;;;;4.18;2.95;;;;;;;5.71;72.57;99336.59;2625276;54;20026;-68
2021/11/22 08:50:17;;;;;;;7.05;2.95;;;;;;;5.63;72.62;99337.34;2624738;54;20593;-68
2021/11/22 08:52:48;;;;;;;6.68;3.10;;;;;;;5.63;72.32;99337.34;2625553;54;20038;-68
2021/11/22 08:55:19;;;;;;;7.05;2.65;;;;;;;5.63;72.30;99347.00;2622266;54;20075;-68
2021/11/22 08:57:49;;;;;;;9.52;3.40;;;;;;;5.63;72.29;99341.75;2621811;54;20035;-68
2021/11/22 09:00:25;;;;;;;8.65;3.88;;;;;;;5.61;72.39;99354.19;2621338;54;20038;-68
2021/11/22 09:02:56;;;;;;;5.97;3.17;;;;;;;5.62;72.51;99361.09;2620891;54;20561;-68
2021/11/22 09:05:27;;;;;;;9.18;3.30;;;;;;;5.56;72.31;99362.50;2621579;47;20045;-68
2021/11/22 09:07:57;;;;;;;6.00;3.33;;;;;;;5.56;72.40;99359.91;2620837;54;20554;-68
2021/11/22 09:10:27;;;;;;;6.00;2.60;;;;;;;5.55;72.48;99360.88;2620333;54;20061;-68
2021/11/22 14:19:24;;;;;;;1.98;1.10;;;;;;;6.33;62.30;99558.13;2616666;47;20091;-69
2021/11/22 14:30:18;;;;;;;3.15;1.80;;;;;;;6.64;62.16;99565.66;2519660;54;50696;-70
2021/11/22 14:32:49;;;;;;;1.63;1.40;;;;;;;6.63;62.59;99564.84;2623526;54;20026;-71
2021/11/22 14:35:21;;;;;;;3.72;2.03;;;;;;;6.64;62.50;99571.72;2622978;38;20464;-71
2021/11/22 14:38:13;;;;;;;1.40;1.30;;;;;;;6.51;62.33;99573.06;2623056;54;20600;-72
2021/11/22 14:40:45;;;;;;;1.52;1.38;;;;;;;6.56;62.04;99581.34;2622771;54;20026;-70
2021/11/22 14:43:17;;;;;;;2.05;1.80;;;;;;;6.53;62.86;99584.25;2622647;54;20033;-69
2021/11/22 14:45:52;;;;;;;3.30;1.40;;;;;;;6.54;61.84;99570.97;2622902;54;20052;-70
2021/11/22 14:48:26;;;;;;;3.17;1.83;;;;;;;6.53;62.05;99579.00;2623221;54;20130;-70
2021/11/22 14:51:10;;;;;;;2.90;2.17;;;;;;;6.52;62.58;99572.91;2622957;54;20549;-71
2021/11/22 14:53:41;;;;;;;2.38;1.77;;;;;;;6.52;61.80;99574.72;2622062;46;20027;-71
2021/11/22 14:56:15;;;;;;;2.35;1.95;;;;;;;6.47;62.57;99579.59;2623668;38;20687;-71
2021/11/22 14:58:46;;;;;;;2.28;1.98;;;;;;;6.47;62.66;99584.84;2628740;54;20034;-70
2021/11/22 15:01:27;;;;;;;2.55;1.80;;;;;;;6.49;62.31;99590.78;2629529;38;20464;-72
2021/11/22 15:03:59;;;;;;;2.38;1.67;;;;;;;6.47;62.80;99596.19;2625396;47;20026;-71
2021/11/22 15:06:34;;;;;;;3.55;1.58;;;;;;;6.39;62.31;99599.53;2622294;46;20031;-73
2021/11/22 15:09:12;;;;;;;1.25;0.90;;;;;;;6.44;61.73;99605.16;2622386;47;20034;-71
2021/11/22 15:11:46;;;;;;;1.40;1.10;;;;;;;6.37;61.93;99606.75;2623103;46;20038;-73
2021/11/22 15:14:21;;;;;;;5.80;1.20;;;;;;;6.32;62.24;99605.50;2629704;54;20034;-74
2021/11/22 15:16:57;;;;;;;1.20;1.10;;;;;;;6.27;62.40;99600.69;2629852;54;20034;-74
2021/11/22 15:19:29;;;;;;;1.25;1.08;;;;;;;6.31;62.83;99606.50;2625899;54;20065;-72
2021/11/22 15:22:05;;;;;;;2.85;1.10;;;;;;;6.31;62.48;99617.00;2625861;46;20041;-71
2021/11/22 15:24:36;;;;;;;1.00;0.90;;;;;;;6.28;62.27;99612.84;2621586;46;20139;-71
2021/11/22 15:27:08;;;;;;;2.72;1.10;;;;;;;6.22;62.59;99620.50;2622438;54;20030;-71
2021/11/22 15:29:38;;;;;;;3.42;1.10;;;;;;;6.26;62.45;99621.88;2623477;38;20456;-72
2021/11/22 15:32:13;;;;;;;5.50;4.07;;;;;;;6.24;61.98;99618.53;2622472;46;20034;-71
2021/11/22 15:34:43;;;;;;;2.25;1.40;;;;;;;6.10;62.20;99630.34;2620261;39;20426;-72
2021/11/22 15:37:13;;;;;;;2.17;1.50;;;;;;;6.15;62.30;99628.94;2618280;47;20069;-73
2021/11/22 15:39:46;;;;;;;2.25;1.02;;;;;;;6.14;62.39;99644.84;2618720;47;20035;-73
2021/11/22 15:42:18;;;;;;;1.08;1.00;;;;;;;6.18;62.39;99646.22;2619356;54;20049;-72
2021/11/22 15:44:48;;;;;;;1.23;1.10;;;;;;;6.20;61.73;99644.25;2619504;54;20050;-71
2021/11/22 15:47:21;;;;;;;1.40;1.27;;;;;;;6.15;62.48;99638.63;2620420;54;20022;-73
2021/11/22 15:49:52;;;;;;;4.55;1.30;;;;;;;6.07;62.38;99649.81;2619717;47;20034;-73
2021/11/22 15:52:23;;;;;;;1.33;1.00;;;;;;;6.13;62.35;99644.03;2619998;54;20038;-70
2021/11/22 15:54:52;;;;;;;1.58;1.20;;;;;;;6.11;62.19;99653.00;2620083;54;20030;-72
2021/11/22 15:57:22;;;;;;;2.95;1.27;;;;;;;6.02;62.07;99648.63;2622307;54;20688;-76
2021/11/22 15:59:52;;;;;;;1.58;1.00;;;;;;;6.01;62.72;99660.09;2623712;54;20043;-76
2021/11/22 16:02:24;;;;;;;1.60;1.30;;;;;;;6.01;62.62;99665.34;2623511;54;20045;-78
2021/11/22 16:04:54;;;;;;;1.20;1.10;;;;;;;5.99;62.26;99662.00;2623212;54;20641;-76
2021/11/22 16:07:24;;;;;;;1.25;1.00;;;;;;;5.98;62.44;99663.81;2624194;46;20038;-78
2021/11/22 16:09:54;;;;;;;1.38;1.20;;;;;;;5.97;61.92;99664.78;2623265;54;20041;-76
2021/11/22 16:12:25;;;;;;;2.05;1.08;;;;;;;5.95;62.42;99671.97;2623713;54;20431;-74
2021/11/22 16:14:55;;;;;;;1.27;1.17;;;;;;;5.94;62.03;99654.56;2620646;47;20045;-75
2021/11/22 16:17:27;;;;;;;1.50;1.20;;;;;;;5.95;61.77;99664.09;2621622;54;20594;-78
2021/11/22 16:19:59;;;;;;;1.42;1.30;;;;;;;5.94;61.43;99668.50;2624848;47;20141;-75
2021/11/22 16:22:29;;;;;;;1.50;1.20;;;;;;;5.90;61.17;99669.72;2622910;39;20429;-73
2021/11/22 16:24:59;;;;;;;1.33;0.90;;;;;;;5.87;61.47;99674.44;2620344;54;20038;-74
2021/11/22 16:27:28;;;;;;;2.28;1.05;;;;;;;5.87;61.07;99677.06;2620738;54;20549;-73
2021/11/22 16:29:58;;;;;;;1.00;0.95;;;;;;;5.84;61.18;99690.47;2620648;54;20061;-73
2021/11/22 16:32:30;;;;;;;0.82;0.82;;;;;;;5.85;60.83;99690.34;2621470;54;20026;-73
2021/11/22 16:35:03;;;;;;;1.70;0.90;;;;;;;5.84;60.70;99690.47;2622232;54;20027;-73
2021/11/22 16:37:36;;;;;;;2.20;1.25;;;;;;;5.84;60.35;99696.56;2626534;46;20042;-77
2021/11/22 16:40:07;;;;;;;1.80;0.95;;;;;;;5.84;60.55;99691.31;2627608;54;20027;-77
2021/11/22 16:42:37;;;;;;;1.42;1.17;;;;;;;5.90;60.57;99695.97;2625942;54;20046;-78
2021/11/22 16:45:07;;;;;;;2.28;1.23;;;;;;;5.91;59.95;99697.63;2622284;47;20030;-73
2021/11/22 16:47:40;;;;;;;0.80;0.70;;;;;;;5.88;59.60;99708.44;2619483;54;20561;-73
2021/11/22 16:50:10;;;;;;;2.17;1.05;;;;;;;5.85;59.45;99706.06;2621461;47;20045;-74
2021/11/22 16:52:42;;;;;;;2.97;1.25;;;;;;;5.83;59.65;99700.13;2621887;54;20027;-74
2021/11/22 16:55:14;;;;;;;1.60;1.33;;;;;;;5.85;59.79;99713.13;2621326;54;20142;-74
2021/11/22 16:57:53;;;;;;;3.40;1.10;;;;;;;5.85;59.36;99716.56;2619594;54;20031;-73
2021/11/22 17:00:23;;;;;;;0.82;0.80;;;;;;;5.83;59.15;99720.28;2619804;47;20034;-77
2021/11/22 17:02:56;;;;;;;7.72;1.13;;;;;;;5.81;59.17;99727.50;2627070;39;20601;-77
2021/11/22 17:05:25;;;;;;;1.92;1.35;;;;;;;5.81;59.12;99728.31;2626675;54;20046;-77
2021/11/22 17:08:00;;;;;;;2.83;2.00;;;;;;;5.81;59.09;99736.19;2626699;54;20099;-77
2021/11/22 17:10:30;;;;;;;1.98;1.00;;;;;;;5.80;58.81;99729.28;2626164;47;20034;-77
2021/11/22 17:13:00;;;;;;;1.10;1.00;;;;;;;5.77;58.89;99736.59;2623742;54;20045;-77
2021/11/22 17:15:31;;;;;;;1.00;0.90;;;;;;;5.74;58.67;99736.88;2626327;54;20061;-77
2021/11/22 17:18:04;;;;;;;0.90;0.75;;;;;;;5.68;59.13;99735.66;2623380;51;20030;-74
2021/11/22 17:20:33;;;;;;;2.45;1.20;;;;;;;5.65;58.88;99739.38;2619124;47;20067;-73
2021/11/22 17:23:03;;;;;;;1.15;0.90;;;;;;;5.63;58.82;99749.19;2619843;39;20553;-73
2021/11/22 17:25:33;;;;;;;1.70;1.00;;;;;;;5.58;59.47;99750.53;2618504;54;20039;-74
2021/11/22 17:28:03;;;;;;;1.00;0.90;;;;;;;5.57;59.31;99759.38;2618441;47;20034;-75
2021/11/22 17:30:33;;;;;;;1.35;1.15;;;;;;;5.53;59.47;99752.75;2618471;54;20038;-74
2021/11/22 17:33:05;;;;;;;3.80;1.10;;;;;;;5.51;59.95;99754.66;2621101;47;20041;-76
2021/11/22 17:35:35;;;;;;;0.88;0.88;;;;;;;5.43;59.58;99763.25;2621942;54;20034;-75
2021/11/22 17:38:05;;;;;;;1.90;1.00;;;;;;;5.38;59.49;99766.25;2621397;54;20038;-75
2021/11/22 17:40:36;;;;;;;7.60;5.22;;;;;;;5.32;59.86;99766.81;2622126;54;20037;-74
2021/11/22 17:43:06;;;;;;;1.30;1.20;;;;;;;5.26;60.01;99764.72;2622369;54;20069;-74
2021/11/22 17:45:35;;;;;;;2.45;1.50;;;;;;;5.19;60.17;99772.31;2621499;39;20411;-74
2021/11/22 17:48:13;;;;;;;1.52;1.20;;;;;;;5.15;60.09;99783.19;2620394;47;20018;-73
2021/11/22 17:50:43;;;;;;;2.55;1.10;;;;;;;5.09;60.00;99776.69;2621081;54;20034;-74
2021/11/22 17:53:13;;;;;;;1.75;1.25;;;;;;;5.03;59.99;99779.84;2621238;54;20026;-74
2021/11/22 17:55:44;;;;;;;3.17;1.27;;;;;;;4.99;60.04;99777.63;2620610;47;20026;-71
2021/11/22 17:58:13;;;;;;;1.77;1.10;;;;;;;4.93;60.09;99777.16;2616853;54;20042;-67
2021/11/22 18:00:43;;;;;;;1.13;1.05;;;;;;;4.90;60.04;99790.56;2618000;54;20027;-68
2021/11/22 18:03:16;;;;;;;1.35;1.10;;;;;;;4.86;60.25;99793.56;2617641;54;20046;-66
2021/11/22 18:05:47;;;;;;;3.13;1.60;;;;;;;4.77;60.47;99800.41;2617610;54;20042;-67
2021/11/22 18:08:17;;;;;;;2.97;1.90;;;;;;;4.71;60.41;99793.91;2617227;51;20161;-68
2021/11/22 18:10:49;;;;;;;2.25;1.23;;;;;;;4.69;60.24;99797.63;2617896;54;20129;-69
2021/11/22 18:13:24;;;;;;;2.22;1.20;;;;;;;4.63;60.40;99803.38;2617020;47;20042;-68
2021/11/22 18:15:56;;;;;;;1.70;1.33;;;;;;;4.60;60.53;99808.88;2620370;54;20045;-69
2021/11/22 18:18:29;;;;;;;1.75;1.20;;;;;;;4.54;60.62;99805.00;2621517;54;20026;-68
2021/11/22 18:20:58;;;;;;;1.30;1.20;;;;;;;4.52;60.99;99811.31;2617478;47;20034;-66
2021/11/22 18:23:29;;;;;;;2.97;1.30;;;;;;;4.44;60.73;99812.78;2617577;54;20038;-67
2021/11/22 18:25:59;;;;;;;1.50;1.30;;;;;;;4.43;61.17;99807.69;2617901;39;20418;-68
2021/11/22 18:28:29;;;;;;;3.13;2.80;;;;;;;4.38;61.07;99813.31;2617883;54;20042;-67
2021/11/22 18:30:58;;;;;;;5.15;3.55;;;;;;;4.35;60.89;99820.59;2616136;47;20027;-66
2021/11/22 18:33:31;;;;;;;4.05;2.95;;;;;;;4.33;60.93;99823.34;2617676;54;20030;-68
2021/11/22 18:36:02;;;;;;;1.85;1.75;;;;;;;4.28;61.07;99824.66;2617606;54;20026;-68
2021/11/22 18:38:31;;;;;;;4.68;2.00;;;;;;;4.25;61.44;99823.16;2617950;54;20039;-67
2021/11/22 18:41:01;;;;;;;2.10;1.90;;;;;;;4.19;61.43;99818.41;2617980;39;20434;-68
2021/11/22 18:43:31;;;;;;;2.00;1.88;;;;;;;4.16;61.50;99822.13;2617795;47;20070;-68
2021/11/22 18:46:01;;;;;;;2.08;1.88;;;;;;;4.12;61.75;99822.47;2617951;54;20029;-67
2021/11/22 18:48:33;;;;;;;5.55;4.03;;;;;;;4.09;61.82;99825.38;2618406;54;20081;-67
2021/11/22 18:51:03;;;;;;;5.03;2.92;;;;;;;4.04;62.14;99824.91;2617514;47;20027;-66
2021/11/22 18:53:35;;;;;;;3.53;2.60;;;;;;;4.01;62.28;99825.16;2617297;47;20027;-68
2021/11/22 18:56:05;;;;;;;2.22;1.60;;;;;;;3.97;62.10;99830.66;2618019;54;20058;-68
2021/11/22 18:58:35;;;;;;;2.83;2.40;;;;;;;3.95;62.13;99836.94;2618098;54;20085;-66
2021/11/22 19:01:05;;;;;;;3.03;2.20;;;;;;;3.94;62.24;99832.69;2616831;47;20038;-68
2021/11/22 19:03:37;;;;;;;4.57;2.92;;;;;;;3.92;62.48;99842.44;2617772;54;20126;-67
2021/11/22 19:06:07;;;;;;;2.63;2.25;;;;;;;3.87;62.65;99842.78;2617811;54;20033;-67
2021/11/22 19:08:37;;;;;;;3.08;2.03;;;;;;;3.85;63.02;99854.34;2617739;54;20073;-68
2021/11/22 19:11:07;;;;;;;4.00;1.95;;;;;;;3.83;62.91;99845.78;2618201;54;20034;-67
2021/11/22 19:13:36;;;;;;;3.30;2.38;;;;;;;3.78;62.89;99847.94;2618461;54;20035;-68
2021/11/22 19:16:09;;;;;;;3.42;2.53;;;;;;;3.75;63.23;99846.41;2618295;54;20038;-68
2021/11/22 19:18:41;;;;;;;3.17;2.67;;;;;;;3.75;62.65;99856.88;2620014;54;20038;-70
2021/11/22 19:21:13;;;;;;;7.60;4.05;;;;;;;3.72;63.35;99851.91;2620961;54;20600;-67
2021/11/22 19:23:43;;;;;;;3.65;2.47;;;;;;;3.71;62.97;99855.44;2619635;54;20042;-70
2021/11/22 19:26:13;;;;;;;4.82;2.13;;;;;;;3.66;63.10;99855.81;2621152;54;20566;-69
2021/11/22 19:28:42;;;;;;;2.83;2.25;;;;;;;3.65;62.91;99863.81;2623973;54;20034;-69
2021/11/22 19:31:12;;;;;;;2.08;1.75;;;;;;;3.60;63.17;99864.16;2625897;39;20426;-67
2021/11/22 19:33:44;;;;;;;2.70;2.03;;;;;;;3.57;63.47;99866.19;2624366;54;20033;-68
2021/11/22 19:36:14;;;;;;;3.17;2.47;;;;;;;3.54;63.26;99859.41;2624340;54;20042;-68
2021/11/22 19:38:44;;;;;;;3.13;2.08;;;;;;;3.48;63.64;99860.75;2623229;54;20026;-69
2021/11/22 19:41:14;;;;;;;3.63;2.00;;;;;;;3.45;63.81;99862.75;2622898;47;20034;-68
2021/11/22 19:43:45;;;;;;;4.00;2.47;;;;;;;3.36;63.99;99861.72;2623455;46;20038;-68
2021/11/22 19:46:15;;;;;;;13.02;8.02;;;;;;;3.33;64.09;99867.16;2623501;54;20534;-67
2021/11/22 19:48:48;;;;;;;5.15;3.08;;;;;;;3.32;64.22;99868.13;2618095;47;20563;-68
2021/11/22 19:51:17;;;;;;;2.50;2.30;;;;;;;3.29;63.93;99867.53;2617937;54;20038;-71
2021/11/22 19:53:47;;;;;;;4.00;2.92;;;;;;;3.26;64.29;99878.22;2618710;54;20038;-70
2021/11/22 19:56:19;;;;;;;6.15;3.50;;;;;;;3.22;64.33;99888.06;2618326;54;20038;-67
2021/11/22 19:58:52;;;;;;;4.00;2.83;;;;;;;3.21;64.59;99883.81;2618310;54;20129;-69
2021/11/22 20:01:22;;;;;;;4.38;3.20;;;;;;;3.15;64.50;99881.69;2618573;39;20441;-68
2021/11/22 20:03:58;;;;;;;2.95;2.72;;;;;;;3.12;64.64;99895.81;2618334;54;20057;-68
2021/11/22 20:06:27;;;;;;;5.47;2.70;;;;;;;3.06;65.05;99898.03;2618016;39;20451;-69
2021/11/22 20:08:57;;;;;;;2.70;2.50;;;;;;;3.03;65.10;99896.53;2618322;54;20031;-69
2021/11/22 20:11:27;;;;;;;5.30;3.70;;;;;;;3.04;65.31;99894.72;2618148;54;20027;-69
2021/11/22 20:14:03;;;;;;;4.00;3.30;;;;;;;3.01;65.49;99892.34;2618399;54;20038;-67
2021/11/22 20:16:35;;;;;;;3.25;2.95;;;;;;;2.97;65.87;99899.59;2617903;47;20039;-70
2021/11/22 20:19:09;;;;;;;4.05;3.65;;;;;;;2.96;65.94;99905.75;2617893;47;20078;-68
2021/11/22 20:21:41;;;;;;;5.03;3.38;;;;;;;2.95;65.57;99904.13;2618178;54;20038;-68
2021/11/22 20:24:12;;;;;;;4.30;3.33;;;;;;;2.90;65.54;99904.47;2617733;47;20576;-68
2021/11/22 20:26:44;;;;;;;4.65;3.28;;;;;;;2.86;65.86;99907.44;2619121;54;20046;-67
2021/11/22 20:29:14;;;;;;;5.53;4.03;;;;;;;2.84;66.38;99910.13;2618408;46;20030;-68
2021/11/22 20:31:50;;;;;;;5.53;4.25;;;;;;;2.85;66.46;99910.97;2617881;54;20039;-68
2021/11/22 20:34:22;;;;;;;4.60;3.53;;;;;;;2.83;66.31;99913.72;2618735;54;20133;-68
2021/11/22 20:36:52;;;;;;;5.57;3.17;;;;;;;2.82;66.63;99914.66;2619024;54;20154;-69
2021/11/22 20:39:23;;;;;;;3.90;3.30;;;;;;;2.81;66.34;99919.97;2618280;47;20029;-68
2021/11/22 20:41:55;;;;;;;5.60;2.95;;;;;;;2.79;66.38;99917.50;2618626;47;20537;-70
2021/11/22 20:44:26;;;;;;;3.92;3.40;;;;;;;2.78;66.40;99926.28;2619225;54;20041;-67
2021/11/22 20:46:55;;;;;;;4.35;3.17;;;;;;;2.78;66.90;99935.91;2619007;54;20061;-67
2021/11/22 20:49:28;;;;;;;3.50;3.00;;;;;;;2.75;66.67;99930.91;2619213;54;20061;-68
2021/11/22 20:51:57;;;;;;;4.95;3.65;;;;;;;2.74;66.73;99935.28;2618776;54;20031;-69
2021/11/22 20:54:27;;;;;;;4.40;3.10;;;;;;;2.74;66.74;99937.91;2618883;54;20174;-68
2021/11/22 20:56:57;;;;;;;4.50;3.38;;;;;;;2.72;67.35;99943.22;2619332;54;20022;-67
2021/11/22 20:59:26;;;;;;;6.95;5.40;;;;;;;2.73;66.93;99944.91;2619024;54;20027;-68
2021/11/22 21:02:02;;;;;;;8.27;4.82;;;;;;;2.72;66.86;99950.22;2619485;54;20043;-67
2021/11/22 21:04:35;;;;;;;4.85;4.15;;;;;;;2.73;67.13;99944.06;2619129;54;20553;-66
2021/11/22 21:07:07;;;;;;;4.38;3.97;;;;;;;2.73;66.93;99950.13;2619705;54;20027;-69
2021/11/22 21:09:37;;;;;;;4.85;4.20;;;;;;;2.71;66.98;99953.78;2620477;54;20121;-69
2021/11/22 21:12:08;;;;;;;5.70;3.65;;;;;;;2.65;67.00;99959.47;2619968;54;20027;-68
2021/11/22 21:14:37;;;;;;;8.23;4.22;;;;;;;2.61;67.32;99958.03;2620556;39;20398;-68
2021/11/22 21:17:07;;;;;;;5.30;4.07;;;;;;;2.57;67.59;99952.22;2620422;46;20029;-69
2021/11/22 21:19:41;;;;;;;5.32;4.50;;;;;;;2.56;67.78;99960.16;2619854;46;20030;-68
2021/11/22 21:22:16;;;;;;;6.45;4.38;;;;;;;2.57;67.95;99962.66;2620999;39;20437;-68
2021/11/22 21:24:46;;;;;;;5.75;4.00;;;;;;;2.54;67.65;99957.66;2619628;46;20026;-68
2021/11/22 21:27:16;;;;;;;10.23;4.85;;;;;;;2.54;67.78;99956.84;2620287;54;20794;-68
2021/11/22 21:29:46;;;;;;;4.00;3.60;;;;;;;2.55;68.04;99961.94;2620159;54;20041;-68
2021/11/22 21:32:15;;;;;;;4.13;3.55;;;;;;;2.51;67.93;99970.09;2619139;39;20445;-69
2021/11/22 21:34:51;;;;;;;5.55;4.30;;;;;;;2.51;67.89;99973.53;2618338;54;20038;-68
2021/11/22 21:37:21;;;;;;;6.10;4.40;;;;;;;2.51;68.33;99970.94;2618790;54;20041;-69
2021/11/22 21:39:51;;;;;;;5.75;4.68;;;;;;;2.52;68.30;99977.81;2618007;47;20045;-69
2021/11/22 21:42:21;;;;;;;6.18;4.45;;;;;;;2.54;68.06;99977.72;2618011;54;20049;-68
2021/11/22 21:44:51;;;;;;;13.43;4.97;;;;;;;2.49;67.94;99978.06;2618520;54;20537;-69
2021/11/22 21:47:21;;;;;;;9.05;4.80;;;;;;;2.45;68.46;99980.06;2618011;54;20035;-68
2021/11/22 21:49:53;;;;;;;6.15;4.85;;;;;;;2.44;68.48;99980.16;2618296;54;20045;-68
2021/11/22 21:52:23;;;;;;;6.25;4.70;;;;;;;2.43;68.44;99979.31;2619898;54;20035;-68
2021/11/22 21:54:53;;;;;;;7.68;4.55;;;;;;;2.41;68.75;99980.41;2618306;54;20031;-68
2021/11/22 21:57:24;;;;;;;6.10;4.80;;;;;;;2.37;68.76;99985.00;2617969;54;20053;-68
2021/11/22 21:59:54;;;;;;;7.05;4.80;;;;;;;2.34;68.94;99981.78;2618415;54;20034;-66
2021/11/22 22:02:27;;;;;;;7.10;4.90;;;;;;;2.33;68.83;99980.94;2617138;47;20071;-68
2021/11/22 22:05:00;;;;;;;7.43;5.07;;;;;;;2.33;68.96;99982.72;2618013;54;20032;-67
2021/11/22 22:07:29;;;;;;;9.93;4.88;;;;;;;2.33;69.29;99970.50;2617923;54;20045;-67
2021/11/22 22:10:01;;;;;;;7.50;4.30;;;;;;;2.32;68.93;99979.25;2617720;54;20434;-67
2021/11/22 22:12:34;;;;;;;5.43;4.53;;;;;;;2.30;68.94;99983.78;2617485;54;20027;-67
2021/11/22 22:15:04;;;;;;;8.95;5.53;;;;;;;2.18;69.27;99988.09;2617259;47;20030;-67
2021/11/22 22:17:34;;;;;;;5.88;4.97;;;;;;;2.18;69.21;99988.09;2617922;54;20035;-67
2021/11/22 22:20:08;;;;;;;6.32;4.57;;;;;;;2.18;69.40;99995.09;2617979;54;20030;-67
2021/11/22 22:22:39;;;;;;;6.00;5.18;;;;;;;2.11;69.43;99994.69;2617706;54;20049;-67
2021/11/22 22:25:14;;;;;;;8.20;5.05;;;;;;;2.09;69.52;99999.19;2617202;47;20039;-67
2021/11/22 22:27:45;;;;;;;8.55;4.47;;;;;;;2.05;69.34;99995.13;2617028;47;20023;-67
2021/11/22 22:30:17;;;;;;;7.72;4.63;;;;;;;2.01;69.53;99998.06;2617716;54;20046;-68
2021/11/22 22:32:48;;;;;;;6.53;4.88;;;;;;;1.98;69.72;99999.94;2617664;54;20038;-67
2021/11/22 22:35:20;;;;;;;5.85;4.80;;;;;;;1.95;69.91;100005.38;2617723;54;20534;-67
2021/11/22 22:37:54;;;;;;;5.55;4.57;;;;;;;1.87;70.03;100006.84;2617758;54;20034;-67
2021/11/22 22:40:25;;;;;;;6.55;4.53;;;;;;;1.82;70.47;100006.34;2617587;54;20041;-67
2021/11/22 22:42:55;;;;;;;7.13;5.38;;;;;;;1.73;70.56;100003.44;2617786;54;20069;-67
2021/11/22 22:45:25;;;;;;;7.40;4.90;;;;;;;1.71;70.73;100004.47;2619002;54;20576;-68
2021/11/22 22:47:56;;;;;;;5.97;4.95;;;;;;;1.67;71.00;100000.41;2619483;54;20033;-68
2021/11/22 22:50:30;;;;;;;5.95;4.68;;;;;;;1.69;70.60;99999.38;2619021;54;20174;-66
2021/11/22 22:53:01;;;;;;;8.80;4.82;;;;;;;1.71;70.85;99996.66;2618426;54;20034;-67
2021/11/22 22:55:32;;;;;;;7.35;4.65;;;;;;;1.71;70.70;100002.72;2618560;54;20590;-68
2021/11/22 22:58:03;;;;;;;5.57;4.68;;;;;;;1.69;71.16;100007.19;2618703;54;20553;-67
2021/11/22 23:00:44;;;;;;;7.13;5.10;;;;;;;1.70;71.06;100013.25;2618392;54;20033;-67
2021/11/22 23:03:14;;;;;;;7.55;4.82;;;;;;;1.72;70.96;100012.22;2618322;54;20057;-66
2021/11/22 23:05:46;;;;;;;6.93;4.80;;;;;;;1.70;71.17;100008.84;2618336;54;20053;-67
2021/11/22 23:08:23;;;;;;;9.32;5.80;;;;;;;1.71;70.93;100010.56;2618348;54;20050;-67
2021/11/22 23:10:53;;;;;;;10.00;6.00;;;;;;;1.70;70.79;100010.63;2618305;54;20041;-68
2021/11/22 23:13:28;;;;;;;8.35;5.78;;;;;;;1.67;71.07;100009.09;2618552;54;20023;-67
2021/11/22 23:15:59;;;;;;;10.75;5.93;;;;;;;1.66;71.28;100011.78;2617865;46;20030;-67
2021/11/22 23:18:32;;;;;;;7.43;5.35;;;;;;;1.65;71.59;100018.78;2617841;47;20078;-68
2021/11/22 23:21:07;;;;;;;7.10;5.65;;;;;;;1.65;71.47;100013.56;2618454;54;20574;-68
2021/11/22 23:23:38;;;;;;;9.02;5.60;;;;;;;1.66;71.31;100017.00;2618480;54;20034;-68
2021/11/22 23:26:09;;;;;;;5.65;4.95;;;;;;;1.61;71.47;100019.09;2617875;47;20065;-67
2021/11/22 23:28:40;;;;;;;9.77;4.78;;;;;;;1.56;71.32;100014.22;2617707;54;20071;-68
2021/11/22 23:31:11;;;;;;;7.55;5.57;;;;;;;1.49;71.46;100016.38;2617748;47;20033;-67
2021/11/22 23:33:41;;;;;;;10.77;5.45;;;;;;;1.42;71.81;100022.13;2618393;54;20038;-66
2021/11/22 23:36:14;;;;;;;7.93;5.28;;;;;;;1.47;72.14;100025.28;2618362;54;20030;-67
2021/11/22 23:38:43;;;;;;;8.68;5.15;;;;;;;1.46;71.84;100029.63;2618404;54;20038;-67
2021/11/22 23:41:13;;;;;;;8.95;5.53;;;;;;;1.50;71.91;100027.66;2618069;54;20027;-67
2021/11/22 23:43:43;;;;;;;7.68;5.28;;;;;;;1.53;71.71;100026.63;2618327;54;20039;-67
2021/11/22 23:46:12;;;;;;;6.13;5.20;;;;;;;1.51;71.77;100033.69;2618459;54;20039;-66
2021/11/22 23:48:42;;;;;;;6.43;4.85;;;;;;;1.57;71.47;100035.88;2618278;54;20554;-67
2021/11/22 23:51:14;;;;;;;8.02;5.20;;;;;;;1.61;71.73;100034.75;2618286;54;20030;-67
2021/11/22 23:53:47;;;;;;;6.47;4.35;;;;;;;1.66;71.88;100036.09;2618157;54;20561;-66
2021/11/22 23:56:19;;;;;;;4.57;4.03;;;;;;;1.66;71.83;100032.66;2617703;47;20026;-67
2021/11/22 23:58:48;;;;;;;7.68;4.20;;;;;;;1.64;71.50;100037.97;2617126;54;20031;-71
